This is the latest recevied weather packets stored in our database for station/object KE5VT. If no packets are shown the sender has not sent any weather packets the latest 1 day(s).
| Time | Temp. | Humidity | Pressure | Rain* | Wind** | Luminosity | Snow |
|---|---|---|---|---|---|---|---|
| 1778086308 | 21.67° C | 77% | 1011.5 hPa | 0 mm | 0.45 m/s, 301° | 174 W/m² | - |
| 1778086005 | 21.67° C | 78% | 1011.7 hPa | 0 mm | 0.89 m/s, 191° | 129 W/m² | - |
| 1778085703 | 21.67° C | 74% | 1011.4 hPa | 0 mm | 2.68 m/s, 283° | 84 W/m² | - |
| 1778085398 | 22.22° C | 73% | 1011.5 hPa | 0 mm | 1.34 m/s, 264° | 72 W/m² | - |
| 1778085094 | 22.22° C | 72% | 1011.6 hPa | 0 mm | 1.79 m/s, 258° | 255 W/m² | - |
| 1778084790 | 22.22° C | 71% | 1011.5 hPa | 0 mm | 1.79 m/s, 322° | 157 W/m² | - |
| 1778084488 | 22.22° C | 72% | 1011.4 hPa | 0 mm | 1.79 m/s, 225° | 95 W/m² | - |
| 1778084185 | 22.78° C | 72% | 1011.5 hPa | 0 mm | 2.68 m/s, 278° | 149 W/m² | - |
| 1778083882 | 22.22° C | 72% | 1011.2 hPa | 0 mm | 3.58 m/s, 292° | 447 W/m² | - |
| 1778083579 | 22.22° C | 72% | 1011.3 hPa | 0 mm | 1.79 m/s, 247° | 220 W/m² | - |
| 1778083275 | 22.22° C | 74% | 1011.2 hPa | 0 mm | 0.89 m/s, 221° | 196 W/m² | - |
| 1778082975 | 21.67° C | 74% | 1011.1 hPa | 0 mm | 0.45 m/s, 266° | 122 W/m² | - |
| 1778081829 | 21.67° C | 74% | 1011.3 hPa | 0 mm | 0.45 m/s, 153° | 261 W/m² | - |
| 1778081526 | 21.67° C | 74% | 1011.3 hPa | 0 mm | 0.45 m/s, 153° | 261 W/m² | - |
| 1778081223 | 21.11° C | 75% | 1011.2 hPa | 0 mm | 1.34 m/s, 300° | 216 W/m² | - |
| 1778080921 | 21.67° C | 76% | 1011.2 hPa | 0 mm | 1.34 m/s, 265° | 197 W/m² | - |
| 1778080620 | 21.11° C | 76% | 1011.1 hPa | 0 mm | 0.89 m/s, 254° | 191 W/m² | - |
| 1778080315 | 20.56° C | 77% | 1010.8 hPa | 0 mm | 0.89 m/s, 274° | 187 W/m² | - |
| 1778080012 | 20.56° C | 77% | 1010.9 hPa | 0 mm | 0 m/s | 181 W/m² | - |
| 1778079709 | 20.56° C | 76% | 1010.8 hPa | 0 mm | 0.89 m/s, 303° | 171 W/m² | - |
| 1778079406 | 20.56° C | 77% | 1010.7 hPa | 0 mm | 1.79 m/s, 265° | 178 W/m² | - |
| 1778079103 | 20.56° C | 77% | 1010.7 hPa | 0 mm | 0.89 m/s, 318° | 158 W/m² | - |
| 1778078801 | 20.56° C | 77% | 1010.7 hPa | 0 mm | 0 m/s | 149 W/m² | - |
| 1778078504 | 20° C | 77% | 1010.5 hPa | 0 mm | 0.45 m/s, 265° | 142 W/m² | - |
| 1778078195 | 20° C | 77% | 1010.9 hPa | 0 mm | 0 m/s | 157 W/m² | - |
* Rain latest hour (hover to see other rain measurements)
** Current wind speed in m/s (hover to see current wind gust speed)